Time;durP1;ratioP1;P1;durP2;ratioP2;P2;SDS_P1;SDS_P2;PMS_P1;PMS_P2;Temp;Humidity;BMP_temperature;BMP_pressure;BME280_temperature;BME280_humidity;BME280_pressure;Samples;Min_cycle;Max_cycle;Signal;HPM_P1;HPM_P2
2021/08/30 00:01:27;;;;;;;30.02;20.58;;;16.90;91.00;;;;;;5004086;28;20038;-74
2021/08/30 00:03:52;;;;;;;30.23;22.33;;;16.90;91.00;;;;;;5023940;28;20128;-72
2021/08/30 00:06:18;;;;;;;26.15;21.75;;;16.90;91.00;;;;;;4998102;28;20088;-74
2021/08/30 00:08:44;;;;;;;32.65;22.77;;;16.90;91.10;;;;;;4996600;28;20034;-74
2021/08/30 00:11:09;;;;;;;29.95;23.27;;;16.90;91.20;;;;;;4998864;28;20245;-72
2021/08/30 00:13:35;;;;;;;30.80;23.70;;;16.90;91.20;;;;;;4999834;28;20053;-71
2021/08/30 00:16:01;;;;;;;29.42;22.52;;;16.90;91.20;;;;;;5011449;28;20494;-72
2021/08/30 00:18:27;;;;;;;29.52;23.40;;;16.90;91.30;;;;;;4996652;28;20050;-76
2021/08/30 00:20:53;;;;;;;31.70;22.58;;;16.90;91.30;;;;;;4999400;28;20044;-73
2021/08/30 00:23:19;;;;;;;28.13;20.92;;;16.90;91.30;;;;;;4998851;28;20070;-73
2021/08/30 00:25:44;;;;;;;26.08;19.83;;;16.80;91.30;;;;;;5004627;28;20034;-73
2021/08/30 00:28:11;;;;;;;23.13;19.13;;;16.90;91.30;;;;;;5011691;28;20369;-73
2021/08/30 00:30:36;;;;;;;26.52;18.95;;;16.90;91.30;;;;;;4998601;28;20424;-72
2021/08/30 00:33:02;;;;;;;22.73;18.23;;;16.90;91.20;;;;;;4995771;28;20037;-72
2021/08/30 00:35:28;;;;;;;26.98;18.25;;;16.80;91.20;;;;;;5020336;28;20040;-73
2021/08/30 00:37:53;;;;;;;25.02;17.08;;;16.90;91.10;;;;;;5001321;28;20176;-71
2021/08/30 00:40:19;;;;;;;22.00;16.67;;;16.90;91.20;;;;;;4996374;28;20038;-72
2021/08/30 00:42:45;;;;;;;22.33;16.17;;;16.80;91.10;;;;;;5005108;28;20036;-73
2021/08/30 00:45:12;;;;;;;22.27;16.02;;;16.80;91.10;;;;;;5013787;28;20135;-72
2021/08/30 00:47:39;;;;;;;24.73;16.67;;;16.80;91.00;;;;;;4996106;28;20046;-71
2021/08/30 00:50:06;;;;;;;21.42;16.27;;;16.90;90.90;;;;;;5009174;28;20164;-71
2021/08/30 00:52:32;;;;;;;22.85;15.85;;;16.90;90.90;;;;;;5005279;28;20038;-72
2021/08/30 00:54:59;;;;;;;28.13;16.13;;;16.90;90.80;;;;;;5030731;28;20088;-73
2021/08/30 00:57:25;;;;;;;21.13;14.35;;;16.90;90.90;;;;;;5002263;28;20370;-72
2021/08/30 00:59:50;;;;;;;21.90;15.85;;;16.80;90.90;;;;;;4989648;28;20459;-77
2021/08/30 01:02:17;;;;;;;20.85;14.68;;;16.90;90.90;;;;;;5003444;28;20037;-75
2021/08/30 01:04:43;;;;;;;21.88;15.15;;;16.90;90.90;;;;;;5008335;28;20135;-72
2021/08/30 01:07:27;;;;;;;20.65;13.75;;;16.80;90.80;;;;;;4999200;28;20424;-75
2021/08/30 01:10:02;;;;;;;19.90;14.32;;;16.80;90.80;;;;;;5000969;28;20065;-77
2021/08/30 01:12:47;;;;;;;18.48;14.23;;;16.80;90.80;;;;;;5000969;28;20118;-73
2021/08/30 01:15:32;;;;;;;21.73;15.00;;;16.80;90.80;;;;;;5016185;28;20050;-72
2021/08/30 01:18:03;;;;;;;21.15;13.98;;;16.80;90.80;;;;;;5007887;28;20037;-72
2021/08/30 01:21:01;;;;;;;18.63;13.63;;;16.80;90.80;;;;;;5014413;28;20129;-75
2021/08/30 01:23:29;;;;;;;21.50;15.32;;;16.80;90.90;;;;;;5001794;28;20046;-74
2021/08/30 01:25:59;;;;;;;20.65;14.73;;;16.80;90.90;;;;;;5002731;28;20042;-73
2021/08/30 01:28:32;;;;;;;20.38;14.27;;;16.80;90.80;;;;;;5002057;28;20029;-73
2021/08/30 01:31:00;;;;;;;20.50;13.05;;;16.80;90.70;;;;;;5009248;28;20053;-77
2021/08/30 01:33:26;;;;;;;17.90;13.05;;;16.80;90.70;;;;;;5003967;28;20064;-74
2021/08/30 01:35:52;;;;;;;21.10;14.15;;;16.80;90.60;;;;;;5014695;28;20042;-78
2021/08/30 01:38:19;;;;;;;22.95;13.93;;;16.80;90.50;;;;;;5011332;28;20506;-73
2021/08/30 01:40:45;;;;;;;18.75;13.38;;;16.80;90.60;;;;;;5023239;28;20092;-73
2021/08/30 01:43:12;;;;;;;17.20;12.65;;;16.80;90.50;;;;;;5002184;28;20065;-74
2021/08/30 01:45:38;;;;;;;21.45;13.60;;;16.80;90.50;;;;;;5006221;28;20030;-71
2021/08/30 01:48:06;;;;;;;20.90;13.32;;;16.70;90.40;;;;;;5004096;28;20100;-73
2021/08/30 01:50:32;;;;;;;19.73;13.40;;;16.70;90.40;;;;;;5001159;28;20026;-76
2021/08/30 01:53:01;;;;;;;18.48;13.32;;;16.70;90.50;;;;;;5005189;28;20045;-72
2021/08/30 02:00:47;;;;;;;20.73;13.50;;;16.70;90.40;;;;;;5006566;28;20099;-71
2021/08/30 02:03:27;;;;;;;21.35;14.27;;;16.70;90.50;;;;;;4999938;28;20052;-71
2021/08/30 02:05:58;;;;;;;20.75;13.55;;;16.70;90.50;;;;;;4994684;28;20507;-71
2021/08/30 02:08:26;;;;;;;21.63;13.75;;;16.80;90.40;;;;;;5005821;28;20037;-72
2021/08/30 02:10:55;;;;;;;19.92;13.63;;;16.70;90.30;;;;;;5003220;28;20121;-72
2021/08/30 02:13:26;;;;;;;22.92;13.80;;;16.70;90.30;;;;;;5008593;28;20180;-72
2021/08/30 02:15:52;;;;;;;20.17;14.95;;;16.70;90.30;;;;;;5005453;28;20029;-71
2021/08/30 02:18:28;;;;;;;19.15;14.00;;;16.70;90.20;;;;;;5003839;28;20034;-72
2021/08/30 02:21:08;;;;;;;17.73;13.27;;;16.70;90.10;;;;;;5019079;28;20108;-75
2021/08/30 02:23:40;;;;;;;21.88;14.98;;;16.70;90.20;;;;;;5015333;28;20053;-72
2021/08/30 02:26:12;;;;;;;21.80;14.07;;;16.70;90.10;;;;;;5001505;28;20101;-75
2021/08/30 02:28:41;;;;;;;18.38;13.98;;;16.70;90.10;;;;;;5001804;28;20041;-72
2021/08/30 02:31:09;;;;;;;23.05;14.15;;;16.70;90.00;;;;;;5008483;28;20044;-72
2021/08/30 02:33:37;;;;;;;19.10;13.82;;;16.70;90.00;;;;;;5010394;28;20080;-72
2021/08/30 02:36:04;;;;;;;19.13;13.32;;;16.70;89.90;;;;;;5005508;28;20025;-72
2021/08/30 02:38:33;;;;;;;18.70;14.65;;;16.70;89.90;;;;;;5006300;28;20042;-72
2021/08/30 02:41:00;;;;;;;18.52;12.90;;;16.70;89.80;;;;;;4998483;28;20618;-76
2021/08/30 02:43:28;;;;;;;20.30;13.25;;;16.70;89.90;;;;;;5004723;28;20087;-72
2021/08/30 02:45:55;;;;;;;18.10;13.60;;;16.70;89.80;;;;;;5007416;28;20575;-75
2021/08/30 02:48:22;;;;;;;19.52;13.10;;;16.70;89.90;;;;;;5013625;28;20047;-72
2021/08/30 02:50:49;;;;;;;21.45;14.88;;;16.70;89.80;;;;;;5013356;28;20041;-73
2021/08/30 02:53:15;;;;;;;19.67;13.75;;;16.70;89.70;;;;;;5016003;28;20041;-72
2021/08/30 02:55:41;;;;;;;21.40;13.55;;;16.60;89.70;;;;;;5003765;28;20448;-72
2021/08/30 02:58:08;;;;;;;19.13;13.50;;;16.70;89.80;;;;;;5024047;28;20096;-76
2021/08/30 03:00:34;;;;;;;19.35;13.80;;;16.70;89.70;;;;;;5024335;28;20080;-73
2021/08/30 03:03:02;;;;;;;18.45;12.88;;;16.70;89.60;;;;;;5023203;28;20029;-72
2021/08/30 03:05:29;;;;;;;17.98;12.45;;;16.70;89.50;;;;;;4996230;28;20201;-72
2021/08/30 03:07:56;;;;;;;18.20;12.65;;;16.70;89.50;;;;;;4992468;28;20065;-73
2021/08/30 03:10:22;;;;;;;19.35;13.15;;;16.70;89.50;;;;;;5002703;28;20046;-75
2021/08/30 03:12:50;;;;;;;19.55;13.45;;;16.70;89.50;;;;;;5008966;28;20413;-72
2021/08/30 03:15:20;;;;;;;20.42;13.32;;;16.70;89.40;;;;;;5002042;28;20149;-73
2021/08/30 03:17:46;;;;;;;20.58;13.68;;;16.70;89.30;;;;;;5007529;28;20064;-72
2021/08/30 03:20:17;;;;;;;18.85;12.52;;;16.70;89.30;;;;;;4996615;28;20037;-74
2021/08/30 03:22:43;;;;;;;18.52;13.38;;;16.70;89.20;;;;;;5011094;28;20034;-74
2021/08/30 03:25:14;;;;;;;19.27;12.98;;;16.70;89.20;;;;;;5003125;28;20137;-75
2021/08/30 03:27:45;;;;;;;20.55;13.05;;;16.70;89.10;;;;;;5000654;28;20030;-72
2021/08/30 03:30:14;;;;;;;17.83;12.90;;;16.60;89.00;;;;;;5006194;28;20072;-71
2021/08/30 03:32:42;;;;;;;17.30;13.15;;;16.70;89.00;;;;;;5005726;28;20510;-72
2021/08/30 03:35:10;;;;;;;20.85;13.00;;;16.70;88.90;;;;;;5002663;28;20046;-71
2021/08/30 03:37:37;;;;;;;17.95;12.20;;;16.70;88.70;;;;;;5004050;28;20033;-73
2021/08/30 03:40:05;;;;;;;20.83;14.00;;;16.70;88.70;;;;;;5000919;28;20037;-75
2021/08/30 03:42:31;;;;;;;19.30;12.95;;;16.70;88.60;;;;;;5006847;28;20449;-71
2021/08/30 03:44:57;;;;;;;18.88;13.20;;;16.70;88.70;;;;;;4997738;28;20123;-71
2021/08/30 03:47:23;;;;;;;19.20;12.60;;;16.80;88.60;;;;;;5012534;28;20050;-73
2021/08/30 03:49:50;;;;;;;20.05;13.57;;;16.70;88.50;;;;;;5000297;28;20037;-72
2021/08/30 03:52:16;;;;;;;19.05;12.73;;;16.70;88.60;;;;;;5025042;28;20038;-72
2021/08/30 03:54:42;;;;;;;18.92;12.77;;;16.70;88.50;;;;;;5004903;28;20038;-72
2021/08/30 03:57:13;;;;;;;17.17;12.75;;;16.70;88.50;;;;;;5026071;28;20041;-76
2021/08/30 03:59:43;;;;;;;16.52;12.43;;;16.70;88.50;;;;;;5013203;28;20050;-72
2021/08/30 04:02:11;;;;;;;18.58;13.18;;;16.70;88.50;;;;;;4998445;28;20386;-76
2021/08/30 04:04:38;;;;;;;20.38;13.38;;;16.70;88.60;;;;;;4999428;28;20121;-74
2021/08/30 04:07:05;;;;;;;18.20;13.48;;;16.70;88.60;;;;;;4998075;28;20042;-76
2021/08/30 04:09:31;;;;;;;17.75;12.70;;;16.70;88.60;;;;;;5012270;28;20676;-72
2021/08/30 04:11:57;;;;;;;18.35;12.23;;;16.70;88.60;;;;;;5014290;28;20511;-74
2021/08/30 04:14:23;;;;;;;20.33;13.55;;;16.70;88.60;;;;;;5019341;28;20041;-72
2021/08/30 04:16:49;;;;;;;18.38;13.18;;;16.70;88.60;;;;;;5018058;28;20033;-72
2021/08/30 04:19:16;;;;;;;17.88;13.77;;;16.70;88.70;;;;;;5001061;28;20461;-74
2021/08/30 04:21:42;;;;;;;17.83;13.23;;;16.70;88.60;;;;;;4998695;28;20042;-71
2021/08/30 04:24:08;;;;;;;16.52;12.98;;;16.70;88.70;;;;;;4999221;28;20050;-72
2021/08/30 04:26:34;;;;;;;22.33;14.93;;;16.70;88.80;;;;;;5016594;28;20037;-72
2021/08/30 04:28:59;;;;;;;18.00;13.05;;;16.70;88.80;;;;;;5004645;28;20038;-75
2021/08/30 04:31:25;;;;;;;20.25;14.40;;;16.70;88.70;;;;;;4996854;28;20590;-75
2021/08/30 04:33:51;;;;;;;19.15;13.52;;;16.70;88.60;;;;;;4999619;28;20049;-73
2021/08/30 04:36:17;;;;;;;20.25;14.82;;;16.70;88.70;;;;;;4997014;28;20433;-72
2021/08/30 04:38:43;;;;;;;18.65;14.48;;;16.70;88.70;;;;;;5004908;28;20484;-72
2021/08/30 04:41:08;;;;;;;24.67;15.88;;;16.70;88.60;;;;;;5002911;28;20030;-73
2021/08/30 04:43:34;;;;;;;19.42;14.32;;;16.70;88.60;;;;;;5011226;28;20036;-72
2021/08/30 04:46:00;;;;;;;19.65;14.13;;;16.70;88.60;;;;;;5016960;28;20050;-72
2021/08/30 04:48:25;;;;;;;19.20;14.30;;;16.70;88.60;;;;;;4989838;28;20046;-73
2021/08/30 04:50:51;;;;;;;18.45;14.20;;;16.70;88.70;;;;;;4997138;28;20393;-73
2021/08/30 04:53:16;;;;;;;20.25;14.60;;;16.80;88.70;;;;;;5004479;28;20129;-72
2021/08/30 04:55:42;;;;;;;19.35;14.68;;;16.80;88.70;;;;;;4998015;28;20048;-71
2021/08/30 04:58:11;;;;;;;21.13;15.40;;;16.80;88.70;;;;;;5006945;28;20041;-72
2021/08/30 05:00:37;;;;;;;21.90;15.73;;;16.80;88.70;;;;;;5005136;28;20032;-75
2021/08/30 05:03:03;;;;;;;19.13;16.17;;;16.70;88.70;;;;;;5000081;28;20472;-74
2021/08/30 05:05:28;;;;;;;21.13;15.52;;;16.70;88.60;;;;;;4998860;28;20069;-71
2021/08/30 05:07:54;;;;;;;22.13;16.05;;;16.70;88.70;;;;;;4999677;28;20092;-75
2021/08/30 05:10:20;;;;;;;22.73;16.17;;;16.70;88.50;;;;;;4996033;28;20371;-73
2021/08/30 05:12:45;;;;;;;22.20;16.10;;;16.80;88.40;;;;;;5004758;28;20117;-76
2021/08/30 05:15:11;;;;;;;20.73;14.95;;;16.80;88.40;;;;;;5007844;28;20144;-73
2021/08/30 05:17:37;;;;;;;21.52;15.93;;;16.70;88.40;;;;;;5002751;28;20383;-74
2021/08/30 05:20:04;;;;;;;20.40;15.02;;;16.70;88.10;;;;;;4999518;28;20548;-73
2021/08/30 05:22:30;;;;;;;19.95;15.45;;;16.80;88.00;;;;;;4998909;28;20033;-72
2021/08/30 05:24:55;;;;;;;19.27;15.50;;;16.80;87.90;;;;;;5002316;28;20088;-77
2021/08/30 05:27:21;;;;;;;18.33;15.70;;;16.80;88.00;;;;;;5000993;28;20087;-74
2021/08/30 05:29:47;;;;;;;21.13;15.38;;;16.80;87.80;;;;;;5025354;28;20067;-73
2021/08/30 05:32:12;;;;;;;20.23;14.98;;;16.80;87.90;;;;;;5026043;28;20059;-73
2021/08/30 05:34:38;;;;;;;21.20;15.75;;;16.80;88.00;;;;;;5020644;28;20505;-74
2021/08/30 05:37:04;;;;;;;19.58;15.48;;;16.80;88.10;;;;;;5006221;28;20028;-74
2021/08/30 05:39:29;;;;;;;19.67;15.60;;;16.70;88.10;;;;;;5004159;28;20536;-74
2021/08/30 05:41:55;;;;;;;22.85;16.50;;;16.80;88.10;;;;;;5009982;28;20077;-73
2021/08/30 05:44:21;;;;;;;20.95;15.85;;;16.80;88.00;;;;;;5000461;28;20174;-72
2021/08/30 05:46:46;;;;;;;21.13;15.63;;;16.80;87.90;;;;;;5002755;28;20038;-73
2021/08/30 05:49:12;;;;;;;18.75;15.25;;;16.80;87.80;;;;;;4999537;28;20405;-73
2021/08/30 05:51:37;;;;;;;20.10;14.77;;;16.90;87.80;;;;;;5010772;28;20056;-72
2021/08/30 05:54:03;;;;;;;19.45;15.02;;;16.90;87.70;;;;;;5008929;28;20411;-77
2021/08/30 05:56:29;;;;;;;20.90;14.50;;;16.90;87.70;;;;;;4999883;28;20037;-72
2021/08/30 05:58:55;;;;;;;19.08;14.48;;;16.90;87.70;;;;;;5001385;28;20100;-73
2021/08/30 06:01:20;;;;;;;19.40;15.30;;;17.00;87.80;;;;;;4993691;28;20035;-74
2021/08/30 06:03:46;;;;;;;20.80;15.35;;;16.90;87.70;;;;;;4999950;28;20046;-73
2021/08/30 06:06:12;;;;;;;19.63;16.08;;;16.90;87.70;;;;;;4997337;28;20064;-77
2021/08/30 06:08:37;;;;;;;23.55;16.33;;;17.00;87.80;;;;;;5003551;28;20068;-73
2021/08/30 06:11:03;;;;;;;21.85;17.65;;;17.00;87.80;;;;;;5005270;28;20504;-74
2021/08/30 06:13:29;;;;;;;25.27;17.67;;;17.00;87.70;;;;;;5006346;28;20100;-77
2021/08/30 06:15:54;;;;;;;27.20;18.52;;;17.00;87.60;;;;;;5000488;28;20053;-74
2021/08/30 06:18:21;;;;;;;21.73;17.00;;;17.10;87.50;;;;;;4999744;28;20034;-74
2021/08/30 06:20:47;;;;;;;23.83;16.98;;;17.10;87.50;;;;;;4999653;28;20039;-73
2021/08/30 06:23:12;;;;;;;22.98;18.30;;;17.30;87.30;;;;;;5016434;28;20041;-77
2021/08/30 06:25:39;;;;;;;23.60;18.05;;;17.40;86.50;;;;;;5018796;28;20049;-75
2021/08/30 06:28:05;;;;;;;25.05;17.48;;;17.50;86.50;;;;;;5019336;28;20084;-74
2021/08/30 06:30:33;;;;;;;25.20;19.08;;;17.60;86.40;;;;;;5006128;28;20558;-77
2021/08/30 06:32:59;;;;;;;28.88;19.05;;;17.60;86.10;;;;;;5001944;28;20064;-72
2021/08/30 06:35:24;;;;;;;30.52;20.00;;;17.60;86.30;;;;;;5015435;28;20471;-73
2021/08/30 06:37:50;;;;;;;25.65;18.95;;;17.60;86.20;;;;;;5007811;28;20367;-75
2021/08/30 06:40:17;;;;;;;24.88;20.05;;;17.60;86.20;;;;;;4997345;28;20053;-71
2021/08/30 06:42:43;;;;;;;27.05;18.88;;;17.70;85.90;;;;;;5002190;28;20368;-71
2021/08/30 06:45:09;;;;;;;27.23;20.25;;;17.80;85.60;;;;;;4995923;28;20512;-71
2021/08/30 06:47:35;;;;;;;29.10;20.20;;;17.80;85.30;;;;;;4999586;28;20046;-74
2021/08/30 06:50:02;;;;;;;24.38;19.52;;;18.00;85.00;;;;;;5003936;28;20080;-73
2021/08/30 06:52:28;;;;;;;26.40;19.40;;;18.10;84.80;;;;;;5012247;28;20048;-71
2021/08/30 06:54:54;;;;;;;24.50;19.75;;;18.10;84.60;;;;;;5016383;28;20045;-74
2021/08/30 06:57:19;;;;;;;28.52;20.38;;;18.10;84.50;;;;;;4995900;28;20444;-75
2021/08/30 06:59:45;;;;;;;28.63;20.38;;;18.10;84.10;;;;;;4998686;28;20034;-74
2021/08/30 07:02:11;;;;;;;27.45;20.35;;;18.10;84.00;;;;;;4992475;28;20045;-73
2021/08/30 07:04:36;;;;;;;26.40;20.77;;;18.10;84.00;;;;;;4998399;28;20378;-72
2021/08/30 07:07:02;;;;;;;29.52;22.17;;;18.10;84.40;;;;;;5004793;28;20040;-73
2021/08/30 07:09:28;;;;;;;31.25;21.67;;;18.10;83.60;;;;;;5016455;28;20108;-72
2021/08/30 07:11:54;;;;;;;29.60;22.65;;;18.10;84.20;;;;;;5012069;28;20152;-72
2021/08/30 07:14:19;;;;;;;27.60;21.25;;;18.10;84.10;;;;;;4999529;28;20066;-72
2021/08/30 07:16:45;;;;;;;27.58;21.13;;;18.10;84.00;;;;;;5002985;28;20451;-72
2021/08/30 07:19:12;;;;;;;30.90;23.27;;;18.20;84.20;;;;;;4997799;28;20104;-71
2021/08/30 07:21:37;;;;;;;30.58;22.65;;;18.20;84.10;;;;;;5001544;28;20033;-74
2021/08/30 07:24:03;;;;;;;31.15;22.63;;;18.20;83.50;;;;;;5004853;28;20084;-75
2021/08/30 07:26:29;;;;;;;30.23;22.25;;;18.20;83.30;;;;;;5003310;28;20038;-74
2021/08/30 07:28:55;;;;;;;32.13;23.17;;;18.20;83.70;;;;;;5013677;28;20049;-74
2021/08/30 07:31:21;;;;;;;31.25;23.20;;;18.30;83.40;;;;;;5006072;28;20056;-75
2021/08/30 07:33:47;;;;;;;31.30;23.33;;;18.30;83.60;;;;;;4997383;28;20046;-69
2021/08/30 07:36:14;;;;;;;30.33;22.10;;;18.30;83.60;;;;;;4995270;28;20108;-70
2021/08/30 07:38:41;;;;;;;28.27;21.35;;;18.40;83.70;;;;;;4999662;28;20037;-72
2021/08/30 07:41:07;;;;;;;27.27;21.30;;;18.30;83.80;;;;;;4995554;28;20123;-74
2021/08/30 07:43:32;;;;;;;31.13;21.42;;;18.40;83.90;;;;;;4999536;28;20041;-70
2021/08/30 07:46:00;;;;;;;30.50;22.08;;;18.40;84.00;;;;;;4995908;28;20026;-74
2021/08/30 07:48:26;;;;;;;29.25;21.63;;;18.30;84.00;;;;;;5003615;28;20895;-71
2021/08/30 07:50:52;;;;;;;34.15;21.15;;;18.30;83.80;;;;;;4999166;28;20041;-71
2021/08/30 07:53:18;;;;;;;27.50;20.33;;;18.30;83.80;;;;;;4998548;28;21444;-69
2021/08/30 07:55:44;;;;;;;28.17;19.60;;;18.30;84.20;;;;;;4997764;28;20049;-71
2021/08/30 07:58:09;;;;;;;30.05;19.95;;;18.20;84.10;;;;;;5001796;28;20064;-69
2021/08/30 08:00:35;;;;;;;27.35;20.05;;;18.20;84.30;;;;;;5014616;28;20722;-72
2021/08/30 08:03:01;;;;;;;25.67;18.08;;;18.20;83.80;;;;;;5017423;28;20958;-72
2021/08/30 08:05:26;;;;;;;23.08;17.73;;;18.30;84.10;;;;;;5018245;28;20476;-69
2021/08/30 08:07:52;;;;;;;28.10;18.65;;;18.30;83.90;;;;;;5018873;28;20111;-74
2021/08/30 08:10:18;;;;;;;28.55;18.50;;;18.50;84.00;;;;;;5017827;28;20033;-69
2021/08/30 08:12:43;;;;;;;26.90;18.52;;;18.50;83.60;;;;;;5016895;28;20034;-72
2021/08/30 08:15:09;;;;;;;23.52;17.00;;;18.70;82.90;;;;;;5015463;28;20045;-72
2021/08/30 08:17:36;;;;;;;22.75;17.58;;;18.80;82.30;;;;;;5019730;28;20362;-69
2021/08/30 08:20:04;;;;;;;26.88;17.98;;;18.70;82.10;;;;;;5017070;28;20065;-69
2021/08/30 08:22:30;;;;;;;24.70;17.50;;;18.80;81.60;;;;;;5018614;28;20417;-71
2021/08/30 08:24:59;;;;;;;25.48;16.73;;;18.90;81.90;;;;;;5016253;28;20104;-69
2021/08/30 08:27:25;;;;;;;25.48;17.08;;;19.00;81.50;;;;;;5015872;28;20042;-71
2021/08/30 08:29:50;;;;;;;24.98;16.30;;;19.00;81.10;;;;;;5012636;28;20592;-74
2021/08/30 08:32:16;;;;;;;21.65;17.33;;;19.00;81.30;;;;;;5014569;28;20048;-72
2021/08/30 08:34:42;;;;;;;25.35;16.77;;;19.00;80.70;;;;;;5015127;28;20053;-70
2021/08/30 08:37:08;;;;;;;25.05;16.98;;;19.00;81.30;;;;;;5016379;28;20057;-74
2021/08/30 08:39:35;;;;;;;23.45;16.80;;;19.10;81.00;;;;;;5024387;28;20034;-70
2021/08/30 08:42:01;;;;;;;21.92;17.52;;;19.10;80.80;;;;;;5021903;28;20029;-69
2021/08/30 08:44:27;;;;;;;22.23;17.35;;;19.30;80.80;;;;;;5024674;28;20038;-70
2021/08/30 08:46:53;;;;;;;24.90;17.27;;;19.20;80.40;;;;;;5017323;28;20039;-69
2021/08/30 08:49:22;;;;;;;24.27;17.70;;;19.20;80.10;;;;;;5018999;28;20041;-70
2021/08/30 08:51:49;;;;;;;26.75;18.02;;;19.10;80.30;;;;;;5020312;28;20029;-69
2021/08/30 08:54:15;;;;;;;26.30;19.35;;;19.20;80.40;;;;;;5017728;28;20069;-69
2021/08/30 08:56:41;;;;;;;23.48;18.08;;;19.10;80.30;;;;;;5018870;28;20044;-70
2021/08/30 08:59:07;;;;;;;27.17;17.67;;;19.10;80.30;;;;;;5018372;28;20044;-73
2021/08/30 09:01:37;;;;;;;24.02;18.10;;;19.20;80.10;;;;;;5016938;28;20029;-72
2021/08/30 09:04:04;;;;;;;23.50;18.02;;;19.20;79.80;;;;;;5019788;28;20129;-69
2021/08/30 09:06:39;;;;;;;22.48;17.67;;;19.40;79.90;;;;;;5016882;28;20037;-70
2021/08/30 09:09:10;;;;;;;25.25;17.45;;;19.60;79.80;;;;;;4992855;28;20038;-69
2021/08/30 09:11:44;;;;;;;22.63;17.50;;;19.70;78.70;;;;;;5000100;28;20036;-70
2021/08/30 09:14:22;;;;;;;23.42;18.23;;;19.70;78.70;;;;;;5002941;28;20416;-69
2021/08/30 09:16:49;;;;;;;24.90;18.08;;;19.70;78.90;;;;;;5002232;28;20540;-73
2021/08/30 09:19:17;;;;;;;26.70;19.35;;;19.70;78.60;;;;;;5000304;28;20213;-70
2021/08/30 09:21:48;;;;;;;22.88;17.85;;;19.70;79.00;;;;;;5016433;28;20560;-73
2021/08/30 09:24:16;;;;;;;23.75;18.42;;;19.70;78.70;;;;;;5008937;28;20054;-70
2021/08/30 09:26:46;;;;;;;28.92;19.00;;;19.70;78.50;;;;;;5013696;28;20037;-68
2021/08/30 09:29:34;;;;;;;25.45;18.05;;;19.80;78.30;;;;;;5008534;28;20048;-76
2021/08/30 09:32:00;;;;;;;23.15;19.05;;;19.80;79.00;;;;;;5001153;28;20064;-70
2021/08/30 09:34:34;;;;;;;26.02;18.55;;;19.80;78.70;;;;;;4998550;28;20441;-72
2021/08/30 09:37:00;;;;;;;28.25;18.75;;;19.90;78.90;;;;;;5009662;28;20065;-72
2021/08/30 09:39:26;;;;;;;25.95;19.23;;;20.00;79.10;;;;;;4999173;28;20438;-74
2021/08/30 09:41:53;;;;;;;27.35;19.20;;;19.80;78.60;;;;;;5007146;28;20033;-72
2021/08/30 09:44:23;;;;;;;24.05;20.02;;;19.70;78.90;;;;;;5000279;28;20045;-72
2021/08/30 09:46:49;;;;;;;30.08;20.77;;;19.60;79.00;;;;;;4998650;28;20121;-71
2021/08/30 09:49:15;;;;;;;25.83;21.27;;;19.70;79.20;;;;;;4997850;28;20046;-72
2021/08/30 09:51:41;;;;;;;23.95;19.95;;;19.70;79.10;;;;;;4996762;28;20444;-72
2021/08/30 09:54:07;;;;;;;25.98;19.92;;;19.70;78.90;;;;;;4998146;28;20069;-77
2021/08/30 09:56:38;;;;;;;24.65;19.45;;;19.80;79.20;;;;;;5000344;28;20038;-72
2021/08/30 09:59:08;;;;;;;23.02;19.55;;;19.90;79.00;;;;;;5011185;28;20111;-75
2021/08/30 10:01:38;;;;;;;24.25;19.75;;;20.00;79.30;;;;;;4999954;28;20076;-73
2021/08/30 10:04:06;;;;;;;26.08;21.23;;;20.00;78.80;;;;;;5008826;28;20042;-73
2021/08/30 10:06:33;;;;;;;26.52;20.85;;;20.10;77.60;;;;;;5005542;28;20096;-71
2021/08/30 10:09:00;;;;;;;25.63;20.13;;;20.00;77.50;;;;;;5014486;28;20393;-73
2021/08/30 10:11:27;;;;;;;22.75;20.13;;;20.10;77.20;;;;;;5016608;28;20049;-75
2021/08/30 10:13:52;;;;;;;25.63;18.92;;;20.10;77.50;;;;;;5018142;28;20053;-73
2021/08/30 10:16:18;;;;;;;28.75;19.73;;;20.30;77.20;;;;;;5016806;28;20044;-71
2021/08/30 10:18:52;;;;;;;24.63;18.95;;;20.20;77.30;;;;;;5019836;28;20029;-70
2021/08/30 10:21:19;;;;;;;23.40;18.70;;;20.30;77.50;;;;;;5019937;28;20044;-71
2021/08/30 10:23:46;;;;;;;23.48;19.40;;;20.10;77.10;;;;;;5020101;28;20329;-70
2021/08/30 10:26:12;;;;;;;22.98;18.42;;;20.10;77.50;;;;;;5018227;28;20076;-71
2021/08/30 10:28:41;;;;;;;23.63;18.33;;;20.10;77.10;;;;;;5017598;28;20038;-72
2021/08/30 10:31:17;;;;;;;24.17;18.70;;;20.10;77.10;;;;;;5015381;28;20038;-71
2021/08/30 10:33:49;;;;;;;25.63;19.15;;;20.30;76.90;;;;;;5018190;28;20492;-72
2021/08/30 10:36:19;;;;;;;24.42;18.52;;;20.30;76.90;;;;;;5013767;28;20147;-75
2021/08/30 10:39:06;;;;;;;23.45;19.65;;;20.40;76.40;;;;;;5016150;28;20026;-76
2021/08/30 10:41:42;;;;;;;30.52;18.60;;;20.50;77.00;;;;;;4996456;28;20041;-72
2021/08/30 10:44:19;;;;;;;23.23;18.67;;;20.30;76.80;;;;;;5001149;28;20042;-73
2021/08/30 10:46:51;;;;;;;25.27;18.30;;;20.40;77.10;;;;;;5000651;28;20154;-71
2021/08/30 10:49:29;;;;;;;23.42;18.73;;;20.50;76.30;;;;;;5009000;28;20034;-72
2021/08/30 10:52:12;;;;;;;22.48;19.10;;;20.50;76.00;;;;;;5001977;28;20580;-71
2021/08/30 10:54:57;;;;;;;22.03;18.47;;;20.50;76.20;;;;;;4997935;28;20038;-72
2021/08/30 10:57:37;;;;;;;22.98;17.27;;;20.70;75.60;;;;;;5015289;28;20503;-71
2021/08/30 11:00:09;;;;;;;22.77;17.67;;;20.80;75.10;;;;;;5019640;28;20392;-71
2021/08/30 11:02:44;;;;;;;23.13;17.38;;;20.80;74.70;;;;;;5014600;28;20137;-75
2021/08/30 11:05:10;;;;;;;19.15;16.85;;;20.90;74.90;;;;;;5012285;28;20033;-73
2021/08/30 11:07:36;;;;;;;20.90;17.38;;;21.10;74.10;;;;;;5000150;28;20057;-72
2021/08/30 11:10:04;;;;;;;21.23;16.85;;;21.20;74.30;;;;;;4995863;28;20044;-72
2021/08/30 11:12:29;;;;;;;22.15;16.92;;;21.30;73.20;;;;;;5007127;28;20029;-73
2021/08/30 11:14:57;;;;;;;21.27;16.13;;;21.60;73.60;;;;;;5008566;28;20053;-73
2021/08/30 11:17:31;;;;;;;23.92;15.95;;;21.70;72.70;;;;;;4998334;28;20038;-73
2021/08/30 11:19:58;;;;;;;21.35;15.63;;;21.70;72.20;;;;;;4996109;28;20037;-76
2021/08/30 11:22:25;;;;;;;20.80;15.70;;;21.80;71.20;;;;;;5005841;28;20042;-77
2021/08/30 11:24:51;;;;;;;21.02;15.32;;;21.80;71.30;;;;;;4997742;28;20059;-73
2021/08/30 11:27:24;;;;;;;18.88;14.75;;;21.90;71.30;;;;;;4994752;28;20425;-76
2021/08/30 11:29:55;;;;;;;20.90;15.85;;;21.70;70.60;;;;;;5001184;28;20535;-72
2021/08/30 11:32:24;;;;;;;20.27;15.73;;;21.60;72.00;;;;;;4996992;28;20084;-74
2021/08/30 11:34:50;;;;;;;22.98;16.77;;;21.60;72.70;;;;;;5001113;28;20068;-72
2021/08/30 11:37:23;;;;;;;21.48;15.57;;;21.60;71.60;;;;;;5005752;28;20033;-74
2021/08/30 11:39:50;;;;;;;21.95;14.00;;;21.80;71.90;;;;;;4996399;28;20465;-73
2021/08/30 11:42:21;;;;;;;20.30;14.00;;;21.50;72.40;;;;;;4993548;28;20026;-73
2021/08/30 11:44:47;;;;;;;20.88;14.50;;;21.60;72.90;;;;;;4998296;28;20108;-73
2021/08/30 11:47:15;;;;;;;19.80;14.68;;;21.60;73.00;;;;;;5007892;28;20497;-73
2021/08/30 11:49:45;;;;;;;20.60;14.77;;;21.50;73.00;;;;;;5018256;28;20029;-73
2021/08/30 11:52:12;;;;;;;24.58;15.38;;;21.30;73.80;;;;;;5003075;28;20049;-79
2021/08/30 11:54:54;;;;;;;22.30;13.98;;;21.30;73.90;;;;;;4998505;28;20061;-76
2021/08/30 11:57:20;;;;;;;22.85;14.68;;;21.30;74.70;;;;;;4996597;28;20080;-74
2021/08/30 11:59:51;;;;;;;22.30;14.10;;;21.20;73.80;;;;;;5006574;28;20034;-72
2021/08/30 12:02:17;;;;;;;25.90;15.43;;;21.20;73.80;;;;;;5010837;28;20041;-78
2021/08/30 12:04:44;;;;;;;22.67;15.25;;;21.30;74.30;;;;;;5016086;28;20385;-72
2021/08/30 12:07:15;;;;;;;21.08;14.60;;;21.40;74.50;;;;;;5015687;28;20032;-76
2021/08/30 12:09:48;;;;;;;26.20;15.48;;;21.40;73.60;;;;;;5014538;28;20512;-72
2021/08/30 12:12:17;;;;;;;23.67;14.68;;;21.20;73.90;;;;;;4992600;28;20718;-71
2021/08/30 12:14:57;;;;;;;24.33;15.45;;;21.10;74.70;;;;;;5014439;28;20045;-75
2021/08/30 12:17:24;;;;;;;22.83;15.15;;;21.10;75.00;;;;;;5014089;28;20727;-72
2021/08/30 12:19:58;;;;;;;18.48;13.80;;;21.00;75.00;;;;;;5005278;28;20765;-72
2021/08/30 12:22:26;;;;;;;23.67;14.10;;;20.60;76.00;;;;;;5006722;28;20034;-72
2021/08/30 12:25:16;;;;;;;23.10;14.88;;;20.60;76.50;;;;;;4994809;28;20046;-74
2021/08/30 12:27:43;;;;;;;21.80;15.38;;;20.30;77.10;;;;;;4996463;28;20080;-72
2021/08/30 12:30:25;;;;;;;21.80;15.23;;;20.20;77.70;;;;;;5004905;28;20042;-73
2021/08/30 12:33:17;;;;;;;23.98;15.43;;;20.30;77.40;;;;;;4998598;28;20030;-73
2021/08/30 12:35:45;;;;;;;21.48;15.60;;;20.50;76.90;;;;;;5003052;28;20038;-72
2021/08/30 12:38:14;;;;;;;25.90;16.70;;;20.50;77.00;;;;;;5015449;28;20029;-72